Bowmansville, New York
Current Conditions -  °F | °C
As of 1:54 PM on Sunday 23 Nov 2014 (Local Time) from KBUF Reporting Station
Overcast Overcast  
Wind Chill:   Ceiling: 10000
Heat Index:   Visibility: 10mi
Dew Point:   Wind: 8mph
Humidity: 71%   Direction: 190°S
Pressure: 29.95"   Gusts: NA
Location:  42.94°N, 78.68°W
Report Text: KBUF 231854Z 19007KT 10SM FEW026 FEW070 BKN100 OVC140 09/04 A2995 RMK AO2 SLP147 T00940044
Loading
Personal Weather Stations






























Interactive Weather Map New forecast layout! Learn more

10-Day Weather Forecast

Advertisements
Track Severe Weather on mobile